Amarillo, TX (79120)

1:45 AM CDT on March 29, 2017 (GMT -0500)
Travis middle school | | Change Station

Elev 3658 ft 35.24 °N, 101.81 °W | Updated 0 second ago

Mostly Cloudy
Mostly Cloudy
44.0 °F
Feels Like 41 °F
N
5.0
Wind Variable Wind from WNW

Today
High -- | Low -- °F
--% Chance of Precip.
Yesterday
High -- | Low -- °F
Precip. -- in
Pressure 29.68 in
Visibility 1.2 miles
Clouds Overcast 200 ft
Windchill 41 °F
Dew Point 43 °F
Humidity 98%
Rainfall 0.00 in
Snow Depth Not available.
7:37 AM 8:06 PM
New Moon, 2% visible
SPECI KAMA 290642Z 36015G27KT 1 1/4SM R04/3500VP6000FT BR OVC002 07/07 A2968 RMK AO2 PK WND 34031/0622 TWR VIS 3 RAB05E15 P0000 T00670067
Pressure 29.68 in
Visibility 1.2 miles
Clouds Overcast 200 ft
Windchill 41 °F
Dew Point 43 °F
Humidity 98%
Rainfall 0.00 in
Snow Depth Not available.
7:37 AM 8:06 PM
New Moon, 2% visible
SPECI KAMA 290642Z 36015G27KT 1 1/4SM R04/3500VP6000FT BR OVC002 07/07 A2968 RMK AO2 PK WND 34031/0622 TWR VIS 3 RAB05E15 P0000 T00670067

Get Severe Weather Alerts

Thanks for signing up!

Be on the lookout for a verification email in your inbox.

You'll start receiving the daily forecast at 8 AM.

×

10-Day Weather Forecast

Almanac

Astronomy

Mar. 29, 2017 Rise Set
Actual Time
Civil Twilight
Nautical Twilight
Astronomical Twilight
Moon
Length of Visible Light
Length of Day
Tomorrow will be .
, % of the Moon is Illuminated

Today's Extremes

State Highs State Lows

Community

WunderPhotos

Upload Photos

1,962,540 photos uploaded!

WunderBlog® & News

Nearby

Air Quality

  Air Quality AQ Index Pollutant
Not available.

Snow Depth

Station Depth Elevation

Earthquake Activity

City Distance Mag. Time & Date
Minimum magnitude displayed is 2.5.

Earthquake Activity

City Distance Mag. Time & Date
Minimum magnitude displayed is 2.5.

Coastal Water Temperatures

Place Temperature

Stations

Nearby Weather Stations

Station Location Temp. Windchill Dew Point Humidity Wind Precip. Elev Updated Type
                   

Watches & Warnings

There are currently no watches in effect.